sensor_id;sensor_type;location;lat;lon;timestamp;pressure;altitude;pressure_sealevel;temperature;humidity
45763;BME280;37512;52.408;13.356;2023-06-19T00:00:42;100866.06;;;18.40;100.00
45763;BME280;37512;52.408;13.356;2023-06-19T00:04:43;100859.16;;;18.03;100.00
45763;BME280;37512;52.408;13.356;2023-06-19T00:08:45;100869.91;;;18.15;100.00
45763;BME280;37512;52.408;13.356;2023-06-19T00:12:46;100875.56;;;18.08;100.00
45763;BME280;37512;52.408;13.356;2023-06-19T00:16:48;100868.31;;;18.14;100.00
45763;BME280;37512;52.408;13.356;2023-06-19T00:20:51;100865.03;;;18.23;100.00
45763;BME280;37512;52.408;13.356;2023-06-19T00:24:54;100861.38;;;18.26;100.00
45763;BME280;37512;52.408;13.356;2023-06-19T00:28:56;100866.34;;;18.11;100.00
45763;BME280;37512;52.408;13.356;2023-06-19T00:32:58;100870.72;;;18.12;100.00
45763;BME280;37512;52.408;13.356;2023-06-19T00:37:04;100867.47;;;18.17;100.00
45763;BME280;37512;52.408;13.356;2023-06-19T00:41:06;100864.25;;;18.19;100.00
45763;BME280;37512;52.408;13.356;2023-06-19T00:45:08;100867.38;;;18.32;100.00
45763;BME280;37512;52.408;13.356;2023-06-19T00:49:10;100868.53;;;18.34;100.00
45763;BME280;37512;52.408;13.356;2023-06-19T00:53:12;100868.53;;;18.34;100.00
45763;BME280;37512;52.408;13.356;2023-06-19T00:57:14;100871.00;;;18.29;100.00
45763;BME280;37512;52.408;13.356;2023-06-19T01:01:15;100865.16;;;18.05;100.00
45763;BME280;37512;52.408;13.356;2023-06-19T01:05:17;100860.28;;;18.13;100.00
45763;BME280;37512;52.408;13.356;2023-06-19T01:09:20;100853.00;;;18.23;100.00
45763;BME280;37512;52.408;13.356;2023-06-19T01:13:36;100857.84;;;18.18;100.00
45763;BME280;37512;52.408;13.356;2023-06-19T01:17:39;100855.56;;;18.03;100.00
45763;BME280;37512;52.408;13.356;2023-06-19T01:21:40;100847.66;;;17.87;100.00
45763;BME280;37512;52.408;13.356;2023-06-19T01:25:42;100851.19;;;17.98;100.00
45763;BME280;37512;52.408;13.356;2023-06-19T01:29:44;100849.25;;;17.88;100.00
45763;BME280;37512;52.408;13.356;2023-06-19T01:33:47;100847.59;;;17.94;100.00
45763;BME280;37512;52.408;13.356;2023-06-19T01:37:50;100852.44;;;17.93;100.00
45763;BME280;37512;52.408;13.356;2023-06-19T01:41:54;100853.28;;;17.87;100.00
45763;BME280;37512;52.408;13.356;2023-06-19T01:45:56;100840.06;;;17.84;100.00
45763;BME280;37512;52.408;13.356;2023-06-19T01:49:58;100824.47;;;17.72;100.00
45763;BME280;37512;52.408;13.356;2023-06-19T01:54:00;100824.13;;;17.63;100.00
45763;BME280;37512;52.408;13.356;2023-06-19T01:58:01;100824.22;;;17.52;100.00
45763;BME280;37512;52.408;13.356;2023-06-19T02:02:03;100816.59;;;17.49;100.00
45763;BME280;37512;52.408;13.356;2023-06-19T02:06:05;100814.50;;;17.64;100.00
45763;BME280;37512;52.408;13.356;2023-06-19T02:10:07;100808.50;;;17.65;100.00
45763;BME280;37512;52.408;13.356;2023-06-19T02:14:09;100804.56;;;17.52;100.00
45763;BME280;37512;52.408;13.356;2023-06-19T02:18:12;100805.47;;;17.34;100.00
45763;BME280;37512;52.408;13.356;2023-06-19T02:22:14;100805.94;;;17.19;100.00
45763;BME280;37512;52.408;13.356;2023-06-19T02:26:15;100797.09;;;17.27;100.00
45763;BME280;37512;52.408;13.356;2023-06-19T02:30:17;100797.97;;;17.13;100.00
45763;BME280;37512;52.408;13.356;2023-06-19T02:34:18;100798.41;;;17.08;100.00
45763;BME280;37512;52.408;13.356;2023-06-19T02:38:20;100793.19;;;17.07;100.00
45763;BME280;37512;52.408;13.356;2023-06-19T02:42:22;100787.25;;;16.90;100.00
45763;BME280;37512;52.408;13.356;2023-06-19T02:46:24;100783.94;;;17.10;100.00
45763;BME280;37512;52.408;13.356;2023-06-19T02:50:26;100794.91;;;16.79;100.00
45763;BME280;37512;52.408;13.356;2023-06-19T02:54:27;100782.88;;;16.86;100.00
45763;BME280;37512;52.408;13.356;2023-06-19T02:58:29;100790.50;;;16.75;100.00
45763;BME280;37512;52.408;13.356;2023-06-19T03:02:30;100788.41;;;17.04;100.00
45763;BME280;37512;52.408;13.356;2023-06-19T03:06:32;100793.50;;;17.23;100.00
45763;BME280;37512;52.408;13.356;2023-06-19T03:10:40;100793.97;;;17.11;100.00
45763;BME280;37512;52.408;13.356;2023-06-19T03:14:41;100795.03;;;17.35;100.00
45763;BME280;37512;52.408;13.356;2023-06-19T03:18:43;100790.66;;;17.34;100.00
45763;BME280;37512;52.408;13.356;2023-06-19T03:22:46;100800.16;;;17.51;100.00
45763;BME280;37512;52.408;13.356;2023-06-19T03:26:48;100803.00;;;17.44;100.00
45763;BME280;37512;52.408;13.356;2023-06-19T03:30:50;100814.19;;;17.51;100.00
45763;BME280;37512;52.408;13.356;2023-06-19T03:34:51;100804.47;;;17.66;100.00
45763;BME280;37512;52.408;13.356;2023-06-19T03:38:53;100810.00;;;17.77;100.00
45763;BME280;37512;52.408;13.356;2023-06-19T03:42:56;100813.97;;;17.83;100.00
45763;BME280;37512;52.408;13.356;2023-06-19T03:46:58;100813.53;;;17.92;100.00
45763;BME280;37512;52.408;13.356;2023-06-19T03:50:59;100823.13;;;17.94;100.00
45763;BME280;37512;52.408;13.356;2023-06-19T03:55:02;100813.56;;;17.88;100.00
45763;BME280;37512;52.408;13.356;2023-06-19T03:59:04;100813.97;;;17.87;100.00
45763;BME280;37512;52.408;13.356;2023-06-19T04:03:05;100811.19;;;17.80;100.00
45763;BME280;37512;52.408;13.356;2023-06-19T04:07:07;100812.97;;;18.11;100.00
45763;BME280;37512;52.408;13.356;2023-06-19T04:11:08;100792.94;;;18.06;100.00
45763;BME280;37512;52.408;13.356;2023-06-19T04:15:11;100792.16;;;18.05;100.00
45763;BME280;37512;52.408;13.356;2023-06-19T04:19:13;100785.13;;;17.83;100.00
45763;BME280;37512;52.408;13.356;2023-06-19T04:23:17;100789.47;;;17.91;100.00
45763;BME280;37512;52.408;13.356;2023-06-19T04:27:19;100789.03;;;17.92;100.00
45763;BME280;37512;52.408;13.356;2023-06-19T04:31:20;100799.25;;;18.17;100.00
45763;BME280;37512;52.408;13.356;2023-06-19T04:35:22;100810.50;;;18.17;100.00
45763;BME280;37512;52.408;13.356;2023-06-19T04:39:28;100807.34;;;18.11;100.00
45763;BME280;37512;52.408;13.356;2023-06-19T04:43:30;100813.66;;;18.23;100.00
45763;BME280;37512;52.408;13.356;2023-06-19T04:47:39;100806.75;;;18.31;100.00
45763;BME280;37512;52.408;13.356;2023-06-19T04:51:57;100815.63;;;18.26;100.00
45763;BME280;37512;52.408;13.356;2023-06-19T04:55:59;100813.69;;;18.19;100.00
45763;BME280;37512;52.408;13.356;2023-06-19T05:00:04;100830.63;;;18.12;100.00
45763;BME280;37512;52.408;13.356;2023-06-19T05:04:11;100836.22;;;18.15;100.00
45763;BME280;37512;52.408;13.356;2023-06-19T05:08:13;100836.59;;;18.59;100.00
45763;BME280;37512;52.408;13.356;2023-06-19T05:12:15;100846.84;;;18.80;100.00
45763;BME280;37512;52.408;13.356;2023-06-19T05:16:16;100840.44;;;18.76;100.00
45763;BME280;37512;52.408;13.356;2023-06-19T05:20:21;100842.91;;;18.70;100.00
45763;BME280;37512;52.408;13.356;2023-06-19T05:24:23;100842.84;;;18.74;100.00
45763;BME280;37512;52.408;13.356;2023-06-19T05:28:25;100847.38;;;18.64;100.00
45763;BME280;37512;52.408;13.356;2023-06-19T05:32:26;100845.28;;;18.72;100.00
45763;BME280;37512;52.408;13.356;2023-06-19T05:36:29;100832.84;;;18.73;100.00
45763;BME280;37512;52.408;13.356;2023-06-19T05:40:30;100834.88;;;18.69;100.00
45763;BME280;37512;52.408;13.356;2023-06-19T05:44:32;100835.28;;;18.71;100.00
45763;BME280;37512;52.408;13.356;2023-06-19T05:48:33;100830.03;;;18.73;100.00
45763;BME280;37512;52.408;13.356;2023-06-19T05:52:35;100827.94;;;18.80;100.00
45763;BME280;37512;52.408;13.356;2023-06-19T05:56:36;100822.78;;;19.10;100.00
45763;BME280;37512;52.408;13.356;2023-06-19T06:00:38;100822.53;;;18.97;100.00
45763;BME280;37512;52.408;13.356;2023-06-19T06:04:40;100823.53;;;19.14;100.00
45763;BME280;37512;52.408;13.356;2023-06-19T06:08:41;100829.91;;;19.18;100.00
45763;BME280;37512;52.408;13.356;2023-06-19T06:12:43;100832.25;;;19.23;100.00
45763;BME280;37512;52.408;13.356;2023-06-19T06:16:44;100830.16;;;19.58;100.00
45763;BME280;37512;52.408;13.356;2023-06-19T06:20:46;100827.06;;;19.79;100.00
45763;BME280;37512;52.408;13.356;2023-06-19T06:24:47;100825.66;;;19.64;100.00
45763;BME280;37512;52.408;13.356;2023-06-19T06:28:49;100838.75;;;19.78;100.00
45763;BME280;37512;52.408;13.356;2023-06-19T06:32:50;100841.88;;;19.83;100.00
45763;BME280;37512;52.408;13.356;2023-06-19T06:36:52;100845.56;;;19.80;100.00
45763;BME280;37512;52.408;13.356;2023-06-19T06:41:07;100843.56;;;20.04;100.00
45763;BME280;37512;52.408;13.356;2023-06-19T06:45:09;100846.00;;;20.02;100.00
45763;BME280;37512;52.408;13.356;2023-06-19T06:49:11;100847.19;;;20.05;100.00
45763;BME280;37512;52.408;13.356;2023-06-19T06:53:13;100852.88;;;20.25;100.00
45763;BME280;37512;52.408;13.356;2023-06-19T06:57:14;100851.72;;;20.46;100.00
45763;BME280;37512;52.408;13.356;2023-06-19T07:01:18;100846.72;;;20.57;100.00
45763;BME280;37512;52.408;13.356;2023-06-19T07:05:20;100859.44;;;20.42;100.00
45763;BME280;37512;52.408;13.356;2023-06-19T07:09:22;100859.75;;;20.71;100.00
45763;BME280;37512;52.408;13.356;2023-06-19T07:13:24;100851.16;;;20.78;100.00
45763;BME280;37512;52.408;13.356;2023-06-19T07:17:26;100853.31;;;21.10;100.00
45763;BME280;37512;52.408;13.356;2023-06-19T07:21:28;100852.44;;;20.94;100.00
45763;BME280;37512;52.408;13.356;2023-06-19T07:25:31;100852.25;;;21.44;100.00
45763;BME280;37512;52.408;13.356;2023-06-19T07:29:35;100852.44;;;21.54;100.00
45763;BME280;37512;52.408;13.356;2023-06-19T07:33:36;100857.38;;;21.49;100.00
45763;BME280;37512;52.408;13.356;2023-06-19T07:37:38;100872.44;;;21.79;100.00
45763;BME280;37512;52.408;13.356;2023-06-19T07:41:39;100865.91;;;21.82;98.90
45763;BME280;37512;52.408;13.356;2023-06-19T07:45:41;100858.31;;;21.96;98.52
45763;BME280;37512;52.408;13.356;2023-06-19T07:49:44;100858.41;;;22.08;98.69
45763;BME280;37512;52.408;13.356;2023-06-19T07:53:47;100857.09;;;22.46;93.91
45763;BME280;37512;52.408;13.356;2023-06-19T07:57:48;100869.72;;;22.41;98.08
45763;BME280;37512;52.408;13.356;2023-06-19T08:01:50;100862.56;;;22.53;97.52
45763;BME280;37512;52.408;13.356;2023-06-19T08:05:51;100863.69;;;22.55;91.43
45763;BME280;37512;52.408;13.356;2023-06-19T08:09:53;100857.75;;;22.66;89.36
45763;BME280;37512;52.408;13.356;2023-06-19T08:14:13;100868.63;;;22.68;91.54
45763;BME280;37512;52.408;13.356;2023-06-19T08:18:14;100867.16;;;22.92;96.35
45763;BME280;37512;52.408;13.356;2023-06-19T08:22:16;100871.34;;;22.88;93.85
45763;BME280;37512;52.408;13.356;2023-06-19T08:26:18;100873.25;;;22.91;100.00
45763;BME280;37512;52.408;13.356;2023-06-19T08:30:19;100881.09;;;22.70;94.93
45763;BME280;37512;52.408;13.356;2023-06-19T08:34:21;100872.69;;;22.83;93.86
45763;BME280;37512;52.408;13.356;2023-06-19T08:38:23;100871.47;;;22.97;92.31
45763;BME280;37512;52.408;13.356;2023-06-19T08:42:24;100864.91;;;22.71;94.22
45763;BME280;37512;52.408;13.356;2023-06-19T08:46:26;100859.41;;;22.80;95.28
45763;BME280;37512;52.408;13.356;2023-06-19T08:50:32;100862.16;;;22.96;95.13
45763;BME280;37512;52.408;13.356;2023-06-19T08:54:33;100862.81;;;23.04;89.67
45763;BME280;37512;52.408;13.356;2023-06-19T08:58:35;100864.97;;;22.84;91.60
45763;BME280;37512;52.408;13.356;2023-06-19T09:02:41;100866.00;;;23.06;91.79
45763;BME280;37512;52.408;13.356;2023-06-19T09:06:58;100875.78;;;23.31;89.00
45763;BME280;37512;52.408;13.356;2023-06-19T09:11:03;100871.44;;;23.13;91.42
45763;BME280;37512;52.408;13.356;2023-06-19T09:15:12;100873.50;;;23.13;90.93
45763;BME280;37512;52.408;13.356;2023-06-19T09:19:20;100871.41;;;23.43;89.94
45763;BME280;37512;52.408;13.356;2023-06-19T09:23:22;100878.59;;;23.31;92.38
45763;BME280;37512;52.408;13.356;2023-06-19T09:27:24;100878.28;;;23.29;90.08
45763;BME280;37512;52.408;13.356;2023-06-19T09:31:33;100884.88;;;23.38;91.24
45763;BME280;37512;52.408;13.356;2023-06-19T09:35:35;100891.81;;;23.08;92.00
45763;BME280;37512;52.408;13.356;2023-06-19T09:39:37;100888.00;;;23.15;92.03
45763;BME280;37512;52.408;13.356;2023-06-19T09:43:42;100892.69;;;23.05;93.01
45763;BME280;37512;52.408;13.356;2023-06-19T09:47:46;100885.38;;;23.21;96.56
45763;BME280;37512;52.408;13.356;2023-06-19T09:51:50;100873.28;;;23.33;93.65
45763;BME280;37512;52.408;13.356;2023-06-19T09:55:52;100864.00;;;23.32;98.94
45763;BME280;37512;52.408;13.356;2023-06-19T09:59:55;100848.19;;;23.48;95.90
45763;BME280;37512;52.408;13.356;2023-06-19T10:04:05;100853.28;;;23.40;94.47
45763;BME280;37512;52.408;13.356;2023-06-19T10:08:07;100856.53;;;23.51;96.20
45763;BME280;37512;52.408;13.356;2023-06-19T10:12:12;100848.41;;;23.66;92.39
45763;BME280;37512;52.408;13.356;2023-06-19T10:16:21;100847.06;;;23.71;93.80
45763;BME280;37512;52.408;13.356;2023-06-19T10:20:34;100848.56;;;23.75;92.93
45763;BME280;37512;52.408;13.356;2023-06-19T10:24:50;100846.81;;;24.04;94.75
45763;BME280;37512;52.408;13.356;2023-06-19T10:28:52;100849.09;;;24.09;90.72
45763;BME280;37512;52.408;13.356;2023-06-19T10:32:53;100837.66;;;23.99;90.92
45763;BME280;37512;52.408;13.356;2023-06-19T10:36:55;100826.97;;;24.16;86.07
45763;BME280;37512;52.408;13.356;2023-06-19T10:40:57;100825.94;;;24.23;85.60
45763;BME280;37512;52.408;13.356;2023-06-19T10:45:07;100811.94;;;24.41;87.90
45763;BME280;37512;52.408;13.356;2023-06-19T10:49:10;100807.28;;;24.48;85.64
45763;BME280;37512;52.408;13.356;2023-06-19T10:57:30;100812.03;;;24.95;77.64
45763;BME280;37512;52.408;13.356;2023-06-19T11:01:37;100806.13;;;24.80;83.11
45763;BME280;37512;52.408;13.356;2023-06-19T11:05:43;100805.47;;;24.98;77.29
45763;BME280;37512;52.408;13.356;2023-06-19T11:09:45;100791.00;;;24.83;77.56
45763;BME280;37512;52.408;13.356;2023-06-19T11:13:46;100791.47;;;24.81;78.87
45763;BME280;37512;52.408;13.356;2023-06-19T11:17:48;100798.06;;;24.78;79.46
45763;BME280;37512;52.408;13.356;2023-06-19T11:21:52;100796.16;;;24.75;75.80
45763;BME280;37512;52.408;13.356;2023-06-19T11:25:54;100790.09;;;24.64;76.19
45763;BME280;37512;52.408;13.356;2023-06-19T11:29:58;100793.53;;;24.59;80.03
45763;BME280;37512;52.408;13.356;2023-06-19T11:34:00;100782.81;;;24.63;76.71
45763;BME280;37512;52.408;13.356;2023-06-19T11:38:03;100795.34;;;24.53;75.93
45763;BME280;37512;52.408;13.356;2023-06-19T11:42:05;100789.25;;;24.41;75.47
45763;BME280;37512;52.408;13.356;2023-06-19T11:46:07;100799.59;;;24.70;74.99
45763;BME280;37512;52.408;13.356;2023-06-19T11:50:09;100807.38;;;25.01;76.79
45763;BME280;37512;52.408;13.356;2023-06-19T11:54:12;100804.91;;;25.12;70.90
45763;BME280;37512;52.408;13.356;2023-06-19T11:58:16;100797.97;;;25.35;70.76
45763;BME280;37512;52.408;13.356;2023-06-19T12:02:17;100801.41;;;25.61;69.53
45763;BME280;37512;52.408;13.356;2023-06-19T12:06:20;100789.69;;;26.00;65.36
45763;BME280;37512;52.408;13.356;2023-06-19T12:10:22;100789.25;;;26.20;65.20
45763;BME280;37512;52.408;13.356;2023-06-19T12:14:24;100786.44;;;26.66;59.89
45763;BME280;37512;52.408;13.356;2023-06-19T12:18:26;100787.31;;;27.09;64.31
45763;BME280;37512;52.408;13.356;2023-06-19T12:22:27;100790.44;;;27.72;61.27
45763;BME280;37512;52.408;13.356;2023-06-19T12:26:29;100780.34;;;27.95;59.62
45763;BME280;37512;52.408;13.356;2023-06-19T12:30:31;100791.66;;;27.47;57.61
45763;BME280;37512;52.408;13.356;2023-06-19T12:34:33;100789.91;;;27.83;56.12
45763;BME280;37512;52.408;13.356;2023-06-19T12:38:34;100781.34;;;27.83;54.69
45763;BME280;37512;52.408;13.356;2023-06-19T12:42:39;100789.03;;;28.64;54.26
45763;BME280;37512;52.408;13.356;2023-06-19T12:46:40;100788.59;;;29.10;50.13
45763;BME280;37512;52.408;13.356;2023-06-19T12:50:42;100784.44;;;29.40;49.84
45763;BME280;37512;52.408;13.356;2023-06-19T12:54:44;100773.41;;;28.89;51.21
45763;BME280;37512;52.408;13.356;2023-06-19T12:58:45;100768.56;;;28.80;52.47
45763;BME280;37512;52.408;13.356;2023-06-19T13:02:47;100767.50;;;28.77;50.45
45763;BME280;37512;52.408;13.356;2023-06-19T13:06:49;100753.59;;;29.45;50.42
45763;BME280;37512;52.408;13.356;2023-06-19T13:10:50;100758.91;;;30.08;50.87
45763;BME280;37512;52.408;13.356;2023-06-19T13:14:52;100761.34;;;29.59;49.70
45763;BME280;37512;52.408;13.356;2023-06-19T13:18:54;100761.41;;;29.29;52.83
45763;BME280;37512;52.408;13.356;2023-06-19T13:22:55;100754.22;;;29.69;50.42
45763;BME280;37512;52.408;13.356;2023-06-19T13:26:57;100755.69;;;29.79;49.89
45763;BME280;37512;52.408;13.356;2023-06-19T13:30:59;100751.97;;;29.94;51.55
45763;BME280;37512;52.408;13.356;2023-06-19T13:35:01;100751.38;;;30.10;49.48
45763;BME280;37512;52.408;13.356;2023-06-19T13:39:03;100747.97;;;30.27;46.88
45763;BME280;37512;52.408;13.356;2023-06-19T13:43:05;100747.88;;;30.00;49.25
45763;BME280;37512;52.408;13.356;2023-06-19T13:47:09;100743.06;;;30.53;44.95
45763;BME280;37512;52.408;13.356;2023-06-19T13:51:11;100731.78;;;30.44;45.30
45763;BME280;37512;52.408;13.356;2023-06-19T13:55:16;100724.84;;;29.69;47.77
45763;BME280;37512;52.408;13.356;2023-06-19T13:59:18;100728.13;;;29.82;47.55
45763;BME280;37512;52.408;13.356;2023-06-19T14:03:20;100729.16;;;29.99;46.55
45763;BME280;37512;52.408;13.356;2023-06-19T14:07:22;100717.28;;;30.07;49.31
45763;BME280;37512;52.408;13.356;2023-06-19T14:11:24;100732.50;;;29.77;46.91
45763;BME280;37512;52.408;13.356;2023-06-19T14:15:26;100730.84;;;29.56;47.99
45763;BME280;37512;52.408;13.356;2023-06-19T14:19:27;100729.63;;;30.18;47.87
45763;BME280;37512;52.408;13.356;2023-06-19T14:23:30;100734.66;;;30.03;47.65
45763;BME280;37512;52.408;13.356;2023-06-19T14:27:32;100734.31;;;29.95;48.19
45763;BME280;37512;52.408;13.356;2023-06-19T14:31:35;100741.22;;;29.89;47.87
45763;BME280;37512;52.408;13.356;2023-06-19T14:35:36;100725.72;;;29.60;49.16
45763;BME280;37512;52.408;13.356;2023-06-19T14:39:38;100733.22;;;29.93;45.42
45763;BME280;37512;52.408;13.356;2023-06-19T14:43:40;100738.38;;;29.89;47.43
45763;BME280;37512;52.408;13.356;2023-06-19T14:47:42;100745.66;;;30.10;44.66
45763;BME280;37512;52.408;13.356;2023-06-19T14:51:44;100746.13;;;30.70;42.60
45763;BME280;37512;52.408;13.356;2023-06-19T14:55:46;100748.69;;;31.58;40.29
45763;BME280;37512;52.408;13.356;2023-06-19T14:59:48;100741.03;;;31.43;36.60
45763;BME280;37512;52.408;13.356;2023-06-19T15:03:49;100749.16;;;31.51;38.74
45763;BME280;37512;52.408;13.356;2023-06-19T15:07:51;100741.34;;;31.19;38.38
45763;BME280;37512;52.408;13.356;2023-06-19T15:11:53;100741.84;;;31.50;38.20
45763;BME280;37512;52.408;13.356;2023-06-19T15:15:54;100739.59;;;31.27;37.96
45763;BME280;37512;52.408;13.356;2023-06-19T15:19:56;100740.78;;;31.15;38.80
45763;BME280;37512;52.408;13.356;2023-06-19T15:23:58;100744.97;;;31.14;39.05
45763;BME280;37512;52.408;13.356;2023-06-19T15:28:00;100735.22;;;31.38;40.81
45763;BME280;37512;52.408;13.356;2023-06-19T15:32:02;100733.66;;;31.74;37.24
45763;BME280;37512;52.408;13.356;2023-06-19T15:36:03;100737.00;;;31.30;38.11
45763;BME280;37512;52.408;13.356;2023-06-19T15:40:06;100741.50;;;31.04;38.64
45763;BME280;37512;52.408;13.356;2023-06-19T15:44:07;100731.19;;;30.40;39.52
45763;BME280;37512;52.408;13.356;2023-06-19T15:48:09;100735.38;;;30.39;40.54
45763;BME280;37512;52.408;13.356;2023-06-19T15:52:10;100736.19;;;30.66;40.05
45763;BME280;37512;52.408;13.356;2023-06-19T15:56:12;100730.41;;;30.86;38.21
45763;BME280;37512;52.408;13.356;2023-06-19T16:00:14;100723.94;;;31.23;37.82
45763;BME280;37512;52.408;13.356;2023-06-19T16:04:16;100718.56;;;30.78;38.98
45763;BME280;37512;52.408;13.356;2023-06-19T16:08:18;100725.22;;;30.90;38.76
45763;BME280;37512;52.408;13.356;2023-06-19T16:12:20;100716.88;;;30.19;38.69
45763;BME280;37512;52.408;13.356;2023-06-19T16:16:21;100709.16;;;30.26;39.48
45763;BME280;37512;52.408;13.356;2023-06-19T16:20:23;100710.34;;;30.13;40.10
45763;BME280;37512;52.408;13.356;2023-06-19T16:24:25;100706.75;;;30.18;40.06
45763;BME280;37512;52.408;13.356;2023-06-19T16:28:27;100720.03;;;30.21;39.57
45763;BME280;37512;52.408;13.356;2023-06-19T16:32:30;100711.59;;;29.71;40.81
45763;BME280;37512;52.408;13.356;2023-06-19T16:36:32;100705.66;;;29.39;41.32
45763;BME280;37512;52.408;13.356;2023-06-19T16:40:34;100702.09;;;29.09;42.46
45763;BME280;37512;52.408;13.356;2023-06-19T16:44:36;100702.41;;;28.82;44.13
45763;BME280;37512;52.408;13.356;2023-06-19T16:48:37;100708.09;;;28.52;43.84
45763;BME280;37512;52.408;13.356;2023-06-19T16:52:38;100706.66;;;28.32;42.98
45763;BME280;37512;52.408;13.356;2023-06-19T16:56:40;100718.34;;;28.20;44.49
45763;BME280;37512;52.408;13.356;2023-06-19T17:00:41;100710.03;;;28.31;44.24
45763;BME280;37512;52.408;13.356;2023-06-19T17:04:43;100709.94;;;28.01;45.01
45763;BME280;37512;52.408;13.356;2023-06-19T17:08:45;100704.56;;;28.18;44.71
45763;BME280;37512;52.408;13.356;2023-06-19T17:12:46;100699.47;;;28.22;45.37
45763;BME280;37512;52.408;13.356;2023-06-19T17:16:48;100706.72;;;28.08;46.51
45763;BME280;37512;52.408;13.356;2023-06-19T17:20:49;100701.13;;;28.14;45.07
45763;BME280;37512;52.408;13.356;2023-06-19T17:24:51;100704.28;;;28.16;45.11
45763;BME280;37512;52.408;13.356;2023-06-19T17:28:53;100699.13;;;27.81;47.41
45763;BME280;37512;52.408;13.356;2023-06-19T17:32:54;100708.00;;;27.83;46.63
45763;BME280;37512;52.408;13.356;2023-06-19T17:36:56;100704.53;;;27.79;47.20
45763;BME280;37512;52.408;13.356;2023-06-19T17:40:58;100700.38;;;27.80;46.85
45763;BME280;37512;52.408;13.356;2023-06-19T17:45:00;100708.53;;;27.48;48.49
45763;BME280;37512;52.408;13.356;2023-06-19T17:49:01;100706.50;;;27.40;49.69
45763;BME280;37512;52.408;13.356;2023-06-19T17:53:03;100714.19;;;27.24;51.57
45763;BME280;37512;52.408;13.356;2023-06-19T17:57:06;100704.34;;;27.16;52.63
45763;BME280;37512;52.408;13.356;2023-06-19T18:01:08;100701.47;;;26.92;56.93
45763;BME280;37512;52.408;13.356;2023-06-19T18:05:09;100702.00;;;27.15;54.88
45763;BME280;37512;52.408;13.356;2023-06-19T18:09:12;100703.66;;;26.97;56.08
45763;BME280;37512;52.408;13.356;2023-06-19T18:13:14;100698.50;;;26.68;57.23
45763;BME280;37512;52.408;13.356;2023-06-19T18:17:15;100693.94;;;26.61;57.72
45763;BME280;37512;52.408;13.356;2023-06-19T18:21:17;100691.72;;;26.38;60.53
45763;BME280;37512;52.408;13.356;2023-06-19T18:25:21;100695.69;;;26.13;62.23
45763;BME280;37512;52.408;13.356;2023-06-19T18:29:23;100689.53;;;26.14;63.37
45763;BME280;37512;52.408;13.356;2023-06-19T18:33:25;100692.06;;;26.12;63.56
45763;BME280;37512;52.408;13.356;2023-06-19T18:37:26;100693.63;;;26.13;64.57
45763;BME280;37512;52.408;13.356;2023-06-19T18:41:29;100696.66;;;26.10;65.74
45763;BME280;37512;52.408;13.356;2023-06-19T18:45:31;100706.44;;;25.99;66.60
45763;BME280;37512;52.408;13.356;2023-06-19T18:49:36;100701.69;;;25.96;68.13
45763;BME280;37512;52.408;13.356;2023-06-19T18:53:40;100706.44;;;25.90;68.88
45763;BME280;37512;52.408;13.356;2023-06-19T18:57:42;100711.56;;;25.64;69.99
45763;BME280;37512;52.408;13.356;2023-06-19T19:01:45;100710.59;;;25.58;71.93
45763;BME280;37512;52.408;13.356;2023-06-19T19:05:47;100703.13;;;25.42;72.96
45763;BME280;37512;52.408;13.356;2023-06-19T19:09:51;100716.06;;;25.43;73.45
45763;BME280;37512;52.408;13.356;2023-06-19T19:13:53;100715.44;;;25.39;74.05
45763;BME280;37512;52.408;13.356;2023-06-19T19:17:57;100713.38;;;25.30;73.90
45763;BME280;37512;52.408;13.356;2023-06-19T19:21:59;100722.31;;;25.19;73.95
45763;BME280;37512;52.408;13.356;2023-06-19T19:26:00;100727.03;;;24.91;76.67
45763;BME280;37512;52.408;13.356;2023-06-19T19:30:03;100718.59;;;24.78;77.81
45763;BME280;37512;52.408;13.356;2023-06-19T19:34:05;100731.34;;;24.52;80.01
45763;BME280;37512;52.408;13.356;2023-06-19T19:38:07;100740.09;;;24.45;81.49
45763;BME280;37512;52.408;13.356;2023-06-19T19:42:08;100735.28;;;24.32;82.65
45763;BME280;37512;52.408;13.356;2023-06-19T19:46:10;100734.00;;;24.33;81.83
45763;BME280;37512;52.408;13.356;2023-06-19T19:50:11;100727.13;;;24.21;80.55
45763;BME280;37512;52.408;13.356;2023-06-19T19:54:13;100736.13;;;24.20;79.91
45763;BME280;37512;52.408;13.356;2023-06-19T19:58:15;100739.59;;;24.02;80.68
45763;BME280;37512;52.408;13.356;2023-06-19T20:02:20;100735.91;;;24.14;79.26
45763;BME280;37512;52.408;13.356;2023-06-19T20:06:22;100738.38;;;24.25;79.16
45763;BME280;37512;52.408;13.356;2023-06-19T20:10:31;100731.59;;;24.10;80.26
45763;BME280;37512;52.408;13.356;2023-06-19T20:14:32;100740.28;;;23.93;81.64
45763;BME280;37512;52.408;13.356;2023-06-19T20:18:35;100742.56;;;23.73;83.59
45763;BME280;37512;52.408;13.356;2023-06-19T20:22:44;100749.69;;;23.65;84.55
45763;BME280;37512;52.408;13.356;2023-06-19T20:26:46;100761.25;;;23.57;84.78
45763;BME280;37512;52.408;13.356;2023-06-19T20:30:51;100750.84;;;23.54;85.83
45763;BME280;37512;52.408;13.356;2023-06-19T20:34:53;100748.25;;;23.47;87.13
45763;BME280;37512;52.408;13.356;2023-06-19T20:38:57;100755.84;;;23.50;87.87
45763;BME280;37512;52.408;13.356;2023-06-19T20:42:59;100758.22;;;23.39;87.96
45763;BME280;37512;52.408;13.356;2023-06-19T20:47:01;100760.94;;;23.30;89.38